sensor_id;sensor_type;location;lat;lon;timestamp;P1;durP1;ratioP1;P2;durP2;ratioP2
44885;SDS011;36669;51.428;21.162;2022-12-20T00:01:22;27.20;;;10.68;;
44885;SDS011;36669;51.428;21.162;2022-12-20T00:03:49;28.33;;;12.70;;
44885;SDS011;36669;51.428;21.162;2022-12-20T00:06:16;26.83;;;10.48;;
44885;SDS011;36669;51.428;21.162;2022-12-20T00:08:43;36.63;;;14.05;;
44885;SDS011;36669;51.428;21.162;2022-12-20T00:11:09;32.17;;;12.80;;
44885;SDS011;36669;51.428;21.162;2022-12-20T00:13:35;32.10;;;13.18;;
44885;SDS011;36669;51.428;21.162;2022-12-20T00:18:40;21.90;;;10.15;;
44885;SDS011;36669;51.428;21.162;2022-12-20T00:21:07;26.30;;;12.00;;
44885;SDS011;36669;51.428;21.162;2022-12-20T00:23:35;30.92;;;10.05;;
44885;SDS011;36669;51.428;21.162;2022-12-20T00:26:02;26.42;;;11.50;;
44885;SDS011;36669;51.428;21.162;2022-12-20T00:28:48;27.50;;;12.85;;
44885;SDS011;36669;51.428;21.162;2022-12-20T00:31:15;29.92;;;10.23;;
44885;SDS011;36669;51.428;21.162;2022-12-20T00:33:46;34.65;;;13.27;;
44885;SDS011;36669;51.428;21.162;2022-12-20T00:36:14;31.40;;;11.45;;
44885;SDS011;36669;51.428;21.162;2022-12-20T00:38:43;35.97;;;12.30;;
44885;SDS011;36669;51.428;21.162;2022-12-20T00:41:17;32.58;;;13.20;;
44885;SDS011;36669;51.428;21.162;2022-12-20T00:43:45;30.27;;;12.35;;
44885;SDS011;36669;51.428;21.162;2022-12-20T00:46:12;34.35;;;13.52;;
44885;SDS011;36669;51.428;21.162;2022-12-20T00:48:38;34.50;;;12.20;;
44885;SDS011;36669;51.428;21.162;2022-12-20T00:51:09;36.75;;;14.48;;
44885;SDS011;36669;51.428;21.162;2022-12-20T00:53:37;31.67;;;13.10;;
44885;SDS011;36669;51.428;21.162;2022-12-20T00:56:03;27.67;;;11.48;;
44885;SDS011;36669;51.428;21.162;2022-12-20T00:58:34;28.95;;;11.93;;
44885;SDS011;36669;51.428;21.162;2022-12-20T01:01:01;34.17;;;14.57;;
44885;SDS011;36669;51.428;21.162;2022-12-20T01:03:28;30.35;;;11.93;;
44885;SDS011;36669;51.428;21.162;2022-12-20T01:06:00;26.83;;;12.07;;
44885;SDS011;36669;51.428;21.162;2022-12-20T01:08:27;25.93;;;10.87;;
44885;SDS011;36669;51.428;21.162;2022-12-20T01:10:58;31.15;;;12.95;;
44885;SDS011;36669;51.428;21.162;2022-12-20T01:13:29;36.67;;;14.90;;
44885;SDS011;36669;51.428;21.162;2022-12-20T01:15:55;35.33;;;15.48;;
44885;SDS011;36669;51.428;21.162;2022-12-20T01:18:21;35.88;;;13.90;;
44885;SDS011;36669;51.428;21.162;2022-12-20T01:20:47;37.35;;;15.32;;
44885;SDS011;36669;51.428;21.162;2022-12-20T01:23:12;34.05;;;14.32;;
44885;SDS011;36669;51.428;21.162;2022-12-20T01:25:38;31.77;;;12.95;;
44885;SDS011;36669;51.428;21.162;2022-12-20T01:28:04;33.42;;;14.00;;
44885;SDS011;36669;51.428;21.162;2022-12-20T01:30:29;27.33;;;12.10;;
44885;SDS011;36669;51.428;21.162;2022-12-20T01:32:55;38.60;;;15.80;;
44885;SDS011;36669;51.428;21.162;2022-12-20T01:35:20;29.30;;;13.38;;
44885;SDS011;36669;51.428;21.162;2022-12-20T01:37:46;39.85;;;14.88;;
44885;SDS011;36669;51.428;21.162;2022-12-20T01:40:12;29.17;;;11.18;;
44885;SDS011;36669;51.428;21.162;2022-12-20T01:42:38;35.78;;;13.32;;
44885;SDS011;36669;51.428;21.162;2022-12-20T01:45:04;32.35;;;13.30;;
44885;SDS011;36669;51.428;21.162;2022-12-20T01:47:33;40.63;;;15.57;;
44885;SDS011;36669;51.428;21.162;2022-12-20T01:50:01;41.00;;;15.98;;
44885;SDS011;36669;51.428;21.162;2022-12-20T01:52:35;38.60;;;16.13;;
44885;SDS011;36669;51.428;21.162;2022-12-20T01:55:10;29.90;;;13.40;;
44885;SDS011;36669;51.428;21.162;2022-12-20T01:57:45;32.88;;;13.82;;
44885;SDS011;36669;51.428;21.162;2022-12-20T02:00:11;41.60;;;16.63;;
44885;SDS011;36669;51.428;21.162;2022-12-20T02:02:38;31.52;;;12.88;;
44885;SDS011;36669;51.428;21.162;2022-12-20T02:05:04;39.58;;;15.20;;
44885;SDS011;36669;51.428;21.162;2022-12-20T02:07:31;40.47;;;17.95;;
44885;SDS011;36669;51.428;21.162;2022-12-20T02:10:00;36.25;;;15.25;;
44885;SDS011;36669;51.428;21.162;2022-12-20T02:12:47;37.22;;;13.50;;
44885;SDS011;36669;51.428;21.162;2022-12-20T02:15:16;37.70;;;16.45;;
44885;SDS011;36669;51.428;21.162;2022-12-20T02:20:33;31.20;;;14.20;;
44885;SDS011;36669;51.428;21.162;2022-12-20T02:29:19;31.48;;;14.23;;
44885;SDS011;36669;51.428;21.162;2022-12-20T02:32:01;38.28;;;17.13;;
44885;SDS011;36669;51.428;21.162;2022-12-20T02:34:38;27.48;;;12.65;;
44885;SDS011;36669;51.428;21.162;2022-12-20T02:37:05;37.08;;;17.20;;
44885;SDS011;36669;51.428;21.162;2022-12-20T02:39:31;35.38;;;14.75;;
44885;SDS011;36669;51.428;21.162;2022-12-20T02:42:00;35.60;;;13.02;;
44885;SDS011;36669;51.428;21.162;2022-12-20T02:44:33;38.42;;;17.17;;
44885;SDS011;36669;51.428;21.162;2022-12-20T02:47:22;39.70;;;17.02;;
44885;SDS011;36669;51.428;21.162;2022-12-20T02:50:00;34.22;;;13.52;;
44885;SDS011;36669;51.428;21.162;2022-12-20T02:52:28;33.88;;;13.80;;
44885;SDS011;36669;51.428;21.162;2022-12-20T02:54:55;37.28;;;15.30;;
44885;SDS011;36669;51.428;21.162;2022-12-20T03:02:29;24.30;;;10.88;;
44885;SDS011;36669;51.428;21.162;2022-12-20T03:05:15;33.97;;;14.73;;
44885;SDS011;36669;51.428;21.162;2022-12-20T03:07:42;21.98;;;9.55;;
44885;SDS011;36669;51.428;21.162;2022-12-20T03:10:07;21.15;;;10.90;;
44885;SDS011;36669;51.428;21.162;2022-12-20T03:12:34;27.63;;;12.10;;
44885;SDS011;36669;51.428;21.162;2022-12-20T03:15:00;32.13;;;13.88;;
44885;SDS011;36669;51.428;21.162;2022-12-20T03:17:25;24.08;;;9.65;;
44885;SDS011;36669;51.428;21.162;2022-12-20T03:19:51;30.20;;;12.85;;
44885;SDS011;36669;51.428;21.162;2022-12-20T03:22:16;35.45;;;16.65;;
44885;SDS011;36669;51.428;21.162;2022-12-20T03:24:42;29.67;;;13.82;;
44885;SDS011;36669;51.428;21.162;2022-12-20T03:27:07;34.08;;;13.15;;
44885;SDS011;36669;51.428;21.162;2022-12-20T03:29:33;30.38;;;14.05;;
44885;SDS011;36669;51.428;21.162;2022-12-20T03:31:59;31.58;;;13.85;;
44885;SDS011;36669;51.428;21.162;2022-12-20T03:34:24;33.83;;;14.50;;
44885;SDS011;36669;51.428;21.162;2022-12-20T03:36:50;22.88;;;9.00;;
44885;SDS011;36669;51.428;21.162;2022-12-20T03:39:15;30.98;;;11.68;;
44885;SDS011;36669;51.428;21.162;2022-12-20T03:41:41;31.38;;;12.57;;
44885;SDS011;36669;51.428;21.162;2022-12-20T03:44:07;40.45;;;14.95;;
44885;SDS011;36669;51.428;21.162;2022-12-20T03:46:33;38.28;;;16.33;;
44885;SDS011;36669;51.428;21.162;2022-12-20T03:48:58;38.25;;;16.45;;
44885;SDS011;36669;51.428;21.162;2022-12-20T03:51:24;38.88;;;16.27;;
44885;SDS011;36669;51.428;21.162;2022-12-20T03:53:49;30.02;;;11.98;;
44885;SDS011;36669;51.428;21.162;2022-12-20T03:56:15;28.70;;;12.55;;
44885;SDS011;36669;51.428;21.162;2022-12-20T03:58:41;33.10;;;14.88;;
44885;SDS011;36669;51.428;21.162;2022-12-20T04:01:20;33.50;;;14.77;;
44885;SDS011;36669;51.428;21.162;2022-12-20T04:03:50;29.80;;;13.43;;
44885;SDS011;36669;51.428;21.162;2022-12-20T04:06:16;37.28;;;16.02;;
44885;SDS011;36669;51.428;21.162;2022-12-20T04:08:43;28.55;;;12.18;;
44885;SDS011;36669;51.428;21.162;2022-12-20T04:11:09;29.15;;;13.38;;
44885;SDS011;36669;51.428;21.162;2022-12-20T04:13:44;30.10;;;14.70;;
44885;SDS011;36669;51.428;21.162;2022-12-20T04:16:14;27.77;;;11.50;;
44885;SDS011;36669;51.428;21.162;2022-12-20T04:18:42;28.88;;;14.15;;
44885;SDS011;36669;51.428;21.162;2022-12-20T04:21:08;22.67;;;10.50;;
44885;SDS011;36669;51.428;21.162;2022-12-20T04:23:35;24.85;;;11.75;;
44885;SDS011;36669;51.428;21.162;2022-12-20T04:26:02;37.78;;;15.93;;
44885;SDS011;36669;51.428;21.162;2022-12-20T04:28:29;38.90;;;15.57;;
44885;SDS011;36669;51.428;21.162;2022-12-20T04:30:54;38.70;;;17.50;;
44885;SDS011;36669;51.428;21.162;2022-12-20T04:33:21;41.22;;;18.38;;
44885;SDS011;36669;51.428;21.162;2022-12-20T04:35:47;26.70;;;12.38;;
44885;SDS011;36669;51.428;21.162;2022-12-20T04:38:12;33.22;;;16.63;;
44885;SDS011;36669;51.428;21.162;2022-12-20T04:40:38;32.03;;;14.52;;
44885;SDS011;36669;51.428;21.162;2022-12-20T04:43:04;35.20;;;16.70;;
44885;SDS011;36669;51.428;21.162;2022-12-20T04:45:30;35.78;;;15.43;;
44885;SDS011;36669;51.428;21.162;2022-12-20T04:47:56;41.72;;;17.27;;
44885;SDS011;36669;51.428;21.162;2022-12-20T04:50:21;33.33;;;15.45;;
44885;SDS011;36669;51.428;21.162;2022-12-20T04:52:47;38.03;;;16.50;;
44885;SDS011;36669;51.428;21.162;2022-12-20T04:55:35;36.13;;;16.00;;
44885;SDS011;36669;51.428;21.162;2022-12-20T04:58:01;38.92;;;16.67;;
44885;SDS011;36669;51.428;21.162;2022-12-20T05:00:27;42.85;;;18.52;;
44885;SDS011;36669;51.428;21.162;2022-12-20T05:02:52;41.85;;;16.67;;
44885;SDS011;36669;51.428;21.162;2022-12-20T05:05:18;35.10;;;15.15;;
44885;SDS011;36669;51.428;21.162;2022-12-20T05:07:44;35.63;;;16.77;;
44885;SDS011;36669;51.428;21.162;2022-12-20T05:10:09;31.45;;;13.93;;
44885;SDS011;36669;51.428;21.162;2022-12-20T05:12:35;31.60;;;14.60;;
44885;SDS011;36669;51.428;21.162;2022-12-20T05:15:01;35.55;;;16.38;;
44885;SDS011;36669;51.428;21.162;2022-12-20T05:17:26;31.98;;;15.00;;
44885;SDS011;36669;51.428;21.162;2022-12-20T05:19:52;35.45;;;15.25;;
44885;SDS011;36669;51.428;21.162;2022-12-20T05:22:17;35.70;;;15.13;;
44885;SDS011;36669;51.428;21.162;2022-12-20T05:25:01;32.03;;;15.93;;
44885;SDS011;36669;51.428;21.162;2022-12-20T05:27:45;33.47;;;13.77;;
44885;SDS011;36669;51.428;21.162;2022-12-20T05:30:11;25.20;;;13.23;;
44885;SDS011;36669;51.428;21.162;2022-12-20T05:32:37;28.88;;;12.60;;
44885;SDS011;36669;51.428;21.162;2022-12-20T05:35:03;24.08;;;10.95;;
44885;SDS011;36669;51.428;21.162;2022-12-20T05:37:28;32.45;;;14.80;;
44885;SDS011;36669;51.428;21.162;2022-12-20T05:39:54;34.30;;;15.93;;
44885;SDS011;36669;51.428;21.162;2022-12-20T05:42:20;21.33;;;10.57;;
44885;SDS011;36669;51.428;21.162;2022-12-20T05:44:45;28.08;;;13.23;;
44885;SDS011;36669;51.428;21.162;2022-12-20T05:47:11;30.10;;;13.35;;
44885;SDS011;36669;51.428;21.162;2022-12-20T05:49:36;36.72;;;16.38;;
44885;SDS011;36669;51.428;21.162;2022-12-20T05:52:02;31.70;;;12.00;;
44885;SDS011;36669;51.428;21.162;2022-12-20T05:54:28;32.25;;;15.40;;
44885;SDS011;36669;51.428;21.162;2022-12-20T05:56:53;33.72;;;14.32;;
44885;SDS011;36669;51.428;21.162;2022-12-20T05:59:19;35.20;;;16.33;;
44885;SDS011;36669;51.428;21.162;2022-12-20T06:01:45;32.65;;;14.70;;
44885;SDS011;36669;51.428;21.162;2022-12-20T06:04:10;32.10;;;13.02;;
44885;SDS011;36669;51.428;21.162;2022-12-20T06:06:36;30.77;;;15.32;;
44885;SDS011;36669;51.428;21.162;2022-12-20T06:09:01;31.38;;;15.15;;
44885;SDS011;36669;51.428;21.162;2022-12-20T06:11:27;28.48;;;12.85;;
44885;SDS011;36669;51.428;21.162;2022-12-20T06:13:53;26.95;;;12.05;;
44885;SDS011;36669;51.428;21.162;2022-12-20T06:16:18;34.05;;;14.63;;
44885;SDS011;36669;51.428;21.162;2022-12-20T06:18:45;40.75;;;16.27;;
44885;SDS011;36669;51.428;21.162;2022-12-20T06:21:11;29.48;;;13.02;;
44885;SDS011;36669;51.428;21.162;2022-12-20T06:23:37;33.50;;;17.15;;
44885;SDS011;36669;51.428;21.162;2022-12-20T06:26:02;32.40;;;15.25;;
44885;SDS011;36669;51.428;21.162;2022-12-20T06:28:29;31.23;;;14.57;;
44885;SDS011;36669;51.428;21.162;2022-12-20T06:30:55;33.90;;;15.15;;
44885;SDS011;36669;51.428;21.162;2022-12-20T06:33:21;31.48;;;14.75;;
44885;SDS011;36669;51.428;21.162;2022-12-20T06:35:50;33.03;;;13.00;;
44885;SDS011;36669;51.428;21.162;2022-12-20T06:38:16;30.85;;;14.82;;
44885;SDS011;36669;51.428;21.162;2022-12-20T06:40:42;27.80;;;10.25;;
44885;SDS011;36669;51.428;21.162;2022-12-20T06:43:08;33.67;;;15.85;;
44885;SDS011;36669;51.428;21.162;2022-12-20T06:45:33;35.55;;;16.75;;
44885;SDS011;36669;51.428;21.162;2022-12-20T06:47:59;35.55;;;15.77;;
44885;SDS011;36669;51.428;21.162;2022-12-20T06:50:25;27.92;;;11.90;;
44885;SDS011;36669;51.428;21.162;2022-12-20T06:52:51;29.25;;;12.65;;
44885;SDS011;36669;51.428;21.162;2022-12-20T06:55:17;30.17;;;13.35;;
44885;SDS011;36669;51.428;21.162;2022-12-20T06:57:43;28.23;;;14.20;;
44885;SDS011;36669;51.428;21.162;2022-12-20T07:00:08;40.17;;;17.13;;
44885;SDS011;36669;51.428;21.162;2022-12-20T07:02:36;39.38;;;17.10;;
44885;SDS011;36669;51.428;21.162;2022-12-20T07:05:02;36.17;;;17.73;;
44885;SDS011;36669;51.428;21.162;2022-12-20T07:07:28;22.25;;;10.68;;
44885;SDS011;36669;51.428;21.162;2022-12-20T07:09:54;40.15;;;16.63;;
44885;SDS011;36669;51.428;21.162;2022-12-20T07:12:20;32.38;;;14.32;;
44885;SDS011;36669;51.428;21.162;2022-12-20T07:14:46;36.83;;;15.50;;
44885;SDS011;36669;51.428;21.162;2022-12-20T07:17:13;30.58;;;15.35;;
44885;SDS011;36669;51.428;21.162;2022-12-20T07:19:39;39.83;;;17.83;;
44885;SDS011;36669;51.428;21.162;2022-12-20T07:22:05;40.75;;;18.90;;
44885;SDS011;36669;51.428;21.162;2022-12-20T07:24:31;38.75;;;18.15;;
44885;SDS011;36669;51.428;21.162;2022-12-20T07:26:58;39.67;;;19.35;;
44885;SDS011;36669;51.428;21.162;2022-12-20T07:29:23;37.95;;;16.98;;
44885;SDS011;36669;51.428;21.162;2022-12-20T07:31:49;37.15;;;15.63;;
44885;SDS011;36669;51.428;21.162;2022-12-20T07:34:15;42.65;;;17.88;;
44885;SDS011;36669;51.428;21.162;2022-12-20T07:36:41;33.72;;;14.95;;
44885;SDS011;36669;51.428;21.162;2022-12-20T07:39:08;41.63;;;17.55;;
44885;SDS011;36669;51.428;21.162;2022-12-20T07:41:33;36.30;;;14.80;;
44885;SDS011;36669;51.428;21.162;2022-12-20T07:43:59;40.10;;;18.13;;
44885;SDS011;36669;51.428;21.162;2022-12-20T07:46:25;38.47;;;18.42;;
44885;SDS011;36669;51.428;21.162;2022-12-20T07:48:51;46.28;;;19.25;;
44885;SDS011;36669;51.428;21.162;2022-12-20T07:51:18;31.08;;;13.48;;
44885;SDS011;36669;51.428;21.162;2022-12-20T07:54:02;35.88;;;16.38;;
44885;SDS011;36669;51.428;21.162;2022-12-20T07:56:33;36.28;;;18.70;;
44885;SDS011;36669;51.428;21.162;2022-12-20T07:59:03;41.97;;;19.48;;
44885;SDS011;36669;51.428;21.162;2022-12-20T08:01:29;40.15;;;18.05;;
44885;SDS011;36669;51.428;21.162;2022-12-20T08:03:58;39.88;;;18.48;;
44885;SDS011;36669;51.428;21.162;2022-12-20T08:06:28;44.22;;;20.08;;
44885;SDS011;36669;51.428;21.162;2022-12-20T08:08:54;48.80;;;21.40;;
44885;SDS011;36669;51.428;21.162;2022-12-20T08:11:24;45.38;;;21.83;;
44885;SDS011;36669;51.428;21.162;2022-12-20T08:13:51;46.42;;;19.83;;
44885;SDS011;36669;51.428;21.162;2022-12-20T08:16:17;46.90;;;21.40;;
44885;SDS011;36669;51.428;21.162;2022-12-20T08:18:42;44.13;;;21.85;;
44885;SDS011;36669;51.428;21.162;2022-12-20T08:21:08;53.58;;;23.83;;
44885;SDS011;36669;51.428;21.162;2022-12-20T08:23:36;50.25;;;23.05;;
44885;SDS011;36669;51.428;21.162;2022-12-20T08:26:02;52.28;;;23.23;;
44885;SDS011;36669;51.428;21.162;2022-12-20T08:28:28;50.20;;;22.70;;
44885;SDS011;36669;51.428;21.162;2022-12-20T08:30:59;44.58;;;21.75;;
44885;SDS011;36669;51.428;21.162;2022-12-20T08:33:25;45.90;;;21.33;;
44885;SDS011;36669;51.428;21.162;2022-12-20T08:36:01;47.00;;;21.17;;
44885;SDS011;36669;51.428;21.162;2022-12-20T08:38:29;51.92;;;23.20;;
44885;SDS011;36669;51.428;21.162;2022-12-20T08:41:04;50.25;;;22.10;;
44885;SDS011;36669;51.428;21.162;2022-12-20T08:43:31;53.13;;;23.58;;
44885;SDS011;36669;51.428;21.162;2022-12-20T08:45:57;51.70;;;22.83;;
44885;SDS011;36669;51.428;21.162;2022-12-20T08:48:24;53.10;;;22.67;;
44885;SDS011;36669;51.428;21.162;2022-12-20T08:50:54;51.40;;;25.00;;
44885;SDS011;36669;51.428;21.162;2022-12-20T08:53:25;52.15;;;24.42;;
44885;SDS011;36669;51.428;21.162;2022-12-20T08:55:51;56.83;;;23.75;;
44885;SDS011;36669;51.428;21.162;2022-12-20T08:58:17;49.15;;;20.75;;
44885;SDS011;36669;51.428;21.162;2022-12-20T09:00:44;47.05;;;22.17;;
44885;SDS011;36669;51.428;21.162;2022-12-20T09:03:11;42.42;;;19.08;;
44885;SDS011;36669;51.428;21.162;2022-12-20T09:05:47;34.25;;;16.60;;
44885;SDS011;36669;51.428;21.162;2022-12-20T09:08:13;38.60;;;17.83;;
44885;SDS011;36669;51.428;21.162;2022-12-20T09:10:40;45.30;;;19.15;;
44885;SDS011;36669;51.428;21.162;2022-12-20T09:13:05;39.58;;;17.73;;
44885;SDS011;36669;51.428;21.162;2022-12-20T09:15:32;41.50;;;17.30;;
44885;SDS011;36669;51.428;21.162;2022-12-20T09:17:59;32.67;;;15.27;;
44885;SDS011;36669;51.428;21.162;2022-12-20T09:20:24;32.42;;;14.80;;
44885;SDS011;36669;51.428;21.162;2022-12-20T09:22:50;41.33;;;17.90;;
44885;SDS011;36669;51.428;21.162;2022-12-20T09:25:15;39.15;;;18.10;;
44885;SDS011;36669;51.428;21.162;2022-12-20T09:27:41;38.25;;;17.67;;
44885;SDS011;36669;51.428;21.162;2022-12-20T09:30:08;41.50;;;16.30;;
44885;SDS011;36669;51.428;21.162;2022-12-20T09:32:34;39.58;;;16.67;;
44885;SDS011;36669;51.428;21.162;2022-12-20T09:34:59;48.17;;;19.15;;
44885;SDS011;36669;51.428;21.162;2022-12-20T09:37:25;43.75;;;18.45;;
44885;SDS011;36669;51.428;21.162;2022-12-20T09:39:54;47.15;;;21.50;;
44885;SDS011;36669;51.428;21.162;2022-12-20T09:42:21;41.47;;;19.10;;
44885;SDS011;36669;51.428;21.162;2022-12-20T09:44:51;35.05;;;16.88;;
44885;SDS011;36669;51.428;21.162;2022-12-20T09:47:20;38.00;;;15.70;;
44885;SDS011;36669;51.428;21.162;2022-12-20T09:49:49;37.67;;;17.40;;
44885;SDS011;36669;51.428;21.162;2022-12-20T09:52:22;30.10;;;13.00;;
44885;SDS011;36669;51.428;21.162;2022-12-20T09:54:53;39.67;;;16.00;;
44885;SDS011;36669;51.428;21.162;2022-12-20T10:00:18;34.40;;;16.13;;
44885;SDS011;36669;51.428;21.162;2022-12-20T10:02:45;36.30;;;16.30;;
44885;SDS011;36669;51.428;21.162;2022-12-20T10:05:15;35.00;;;17.65;;
44885;SDS011;36669;51.428;21.162;2022-12-20T10:16:26;43.50;;;18.00;;
44885;SDS011;36669;51.428;21.162;2022-12-20T10:19:34;29.90;;;14.70;;
44885;SDS011;36669;51.428;21.162;2022-12-20T10:22:55;40.00;;;18.38;;
44885;SDS011;36669;51.428;21.162;2022-12-20T10:25:22;35.05;;;17.33;;
44885;SDS011;36669;51.428;21.162;2022-12-20T10:27:54;27.25;;;12.27;;
44885;SDS011;36669;51.428;21.162;2022-12-20T10:30:22;37.67;;;17.60;;
44885;SDS011;36669;51.428;21.162;2022-12-20T10:32:50;30.05;;;14.73;;
44885;SDS011;36669;51.428;21.162;2022-12-20T10:35:24;39.13;;;17.15;;
44885;SDS011;36669;51.428;21.162;2022-12-20T10:38:08;42.03;;;19.73;;
44885;SDS011;36669;51.428;21.162;2022-12-20T10:40:40;38.70;;;16.75;;
44885;SDS011;36669;51.428;21.162;2022-12-20T10:43:05;44.42;;;21.52;;
44885;SDS011;36669;51.428;21.162;2022-12-20T10:45:43;34.47;;;14.68;;
44885;SDS011;36669;51.428;21.162;2022-12-20T10:48:31;37.97;;;19.55;;
44885;SDS011;36669;51.428;21.162;2022-12-20T10:53:33;37.10;;;16.63;;
44885;SDS011;36669;51.428;21.162;2022-12-20T10:56:33;36.83;;;18.83;;
44885;SDS011;36669;51.428;21.162;2022-12-20T10:58:57;36.90;;;17.50;;
44885;SDS011;36669;51.428;21.162;2022-12-20T11:01:28;36.65;;;16.83;;
44885;SDS011;36669;51.428;21.162;2022-12-20T11:12:31;34.47;;;15.93;;
44885;SDS011;36669;51.428;21.162;2022-12-20T11:14:40;40.38;;;18.23;;
44885;SDS011;36669;51.428;21.162;2022-12-20T11:58:48;41.70;;;19.63;;
44885;SDS011;36669;51.428;21.162;2022-12-20T12:01:19;43.40;;;22.00;;
44885;SDS011;36669;51.428;21.162;2022-12-20T12:04:03;42.17;;;19.45;;
44885;SDS011;36669;51.428;21.162;2022-12-20T12:06:42;41.33;;;19.02;;
44885;SDS011;36669;51.428;21.162;2022-12-20T12:09:34;46.47;;;19.63;;
44885;SDS011;36669;51.428;21.162;2022-12-20T12:12:25;42.35;;;19.50;;
44885;SDS011;36669;51.428;21.162;2022-12-20T12:15:05;45.17;;;20.67;;
44885;SDS011;36669;51.428;21.162;2022-12-20T12:17:57;42.60;;;18.60;;
44885;SDS011;36669;51.428;21.162;2022-12-20T12:26:34;40.60;;;19.77;;
44885;SDS011;36669;51.428;21.162;2022-12-20T12:29:03;38.78;;;19.08;;
44885;SDS011;36669;51.428;21.162;2022-12-20T12:34:15;39.63;;;19.20;;
44885;SDS011;36669;51.428;21.162;2022-12-20T12:40:13;38.22;;;18.95;;
44885;SDS011;36669;51.428;21.162;2022-12-20T12:45:47;44.17;;;20.05;;
44885;SDS011;36669;51.428;21.162;2022-12-20T12:51:01;52.05;;;23.10;;
44885;SDS011;36669;51.428;21.162;2022-12-20T12:56:28;53.67;;;23.45;;
44885;SDS011;36669;51.428;21.162;2022-12-20T13:01:49;50.42;;;23.15;;
44885;SDS011;36669;51.428;21.162;2022-12-20T13:11:50;55.00;;;24.23;;
44885;SDS011;36669;51.428;21.162;2022-12-20T13:16:43;69.90;;;27.08;;
44885;SDS011;36669;51.428;21.162;2022-12-20T13:22:26;54.83;;;24.27;;
44885;SDS011;36669;51.428;21.162;2022-12-20T13:29:53;53.00;;;24.10;;
44885;SDS011;36669;51.428;21.162;2022-12-20T13:40:44;59.95;;;26.58;;
44885;SDS011;36669;51.428;21.162;2022-12-20T13:45:49;55.55;;;23.73;;
44885;SDS011;36669;51.428;21.162;2022-12-20T13:48:18;55.60;;;24.25;;
44885;SDS011;36669;51.428;21.162;2022-12-20T13:50:51;46.25;;;21.52;;
44885;SDS011;36669;51.428;21.162;2022-12-20T13:53:21;49.80;;;22.00;;
44885;SDS011;36669;51.428;21.162;2022-12-20T13:55:51;51.13;;;22.30;;
44885;SDS011;36669;51.428;21.162;2022-12-20T13:58:25;44.60;;;21.15;;
44885;SDS011;36669;51.428;21.162;2022-12-20T14:01:02;49.25;;;21.52;;
44885;SDS011;36669;51.428;21.162;2022-12-20T14:03:29;46.42;;;21.10;;
44885;SDS011;36669;51.428;21.162;2022-12-20T14:06:02;53.90;;;24.13;;
44885;SDS011;36669;51.428;21.162;2022-12-20T14:08:33;49.38;;;21.95;;
44885;SDS011;36669;51.428;21.162;2022-12-20T14:11:09;54.83;;;23.40;;
44885;SDS011;36669;51.428;21.162;2022-12-20T14:16:15;53.83;;;24.67;;
44885;SDS011;36669;51.428;21.162;2022-12-20T14:21:28;62.80;;;27.25;;
44885;SDS011;36669;51.428;21.162;2022-12-20T14:23:55;52.35;;;24.25;;
44885;SDS011;36669;51.428;21.162;2022-12-20T14:26:24;55.53;;;25.60;;
44885;SDS011;36669;51.428;21.162;2022-12-20T14:28:53;57.55;;;26.90;;
44885;SDS011;36669;51.428;21.162;2022-12-20T14:33:50;56.15;;;25.50;;
44885;SDS011;36669;51.428;21.162;2022-12-20T14:36:24;63.95;;;27.10;;
44885;SDS011;36669;51.428;21.162;2022-12-20T14:38:50;51.20;;;24.45;;
44885;SDS011;36669;51.428;21.162;2022-12-20T14:43:59;55.70;;;25.88;;
44885;SDS011;36669;51.428;21.162;2022-12-20T14:46:27;51.55;;;24.48;;
44885;SDS011;36669;51.428;21.162;2022-12-20T14:52:03;51.72;;;24.05;;
44885;SDS011;36669;51.428;21.162;2022-12-20T14:54:38;53.90;;;24.50;;
44885;SDS011;36669;51.428;21.162;2022-12-20T14:57:21;60.13;;;25.67;;
44885;SDS011;36669;51.428;21.162;2022-12-20T15:08:14;54.58;;;21.77;;
44885;SDS011;36669;51.428;21.162;2022-12-20T15:13:34;58.38;;;25.55;;
44885;SDS011;36669;51.428;21.162;2022-12-20T15:16:21;59.42;;;25.05;;
44885;SDS011;36669;51.428;21.162;2022-12-20T15:18:58;52.88;;;24.00;;
44885;SDS011;36669;51.428;21.162;2022-12-20T15:21:39;60.17;;;26.85;;
44885;SDS011;36669;51.428;21.162;2022-12-20T15:24:13;63.75;;;28.30;;
44885;SDS011;36669;51.428;21.162;2022-12-20T15:26:42;59.38;;;25.73;;
44885;SDS011;36669;51.428;21.162;2022-12-20T15:29:12;62.00;;;28.48;;
44885;SDS011;36669;51.428;21.162;2022-12-20T15:31:44;68.85;;;28.02;;
44885;SDS011;36669;51.428;21.162;2022-12-20T15:34:14;65.28;;;30.13;;
44885;SDS011;36669;51.428;21.162;2022-12-20T15:36:53;57.67;;;25.17;;
44885;SDS011;36669;51.428;21.162;2022-12-20T15:39:19;58.38;;;25.70;;
44885;SDS011;36669;51.428;21.162;2022-12-20T15:41:46;56.97;;;25.63;;
44885;SDS011;36669;51.428;21.162;2022-12-20T15:44:15;58.08;;;26.20;;
44885;SDS011;36669;51.428;21.162;2022-12-20T15:46:51;58.42;;;26.15;;
44885;SDS011;36669;51.428;21.162;2022-12-20T15:49:21;53.47;;;23.42;;
44885;SDS011;36669;51.428;21.162;2022-12-20T15:51:48;60.70;;;25.63;;
44885;SDS011;36669;51.428;21.162;2022-12-20T15:56:52;61.45;;;26.02;;
44885;SDS011;36669;51.428;21.162;2022-12-20T15:59:18;61.13;;;25.13;;
44885;SDS011;36669;51.428;21.162;2022-12-20T16:01:44;55.17;;;25.52;;
44885;SDS011;36669;51.428;21.162;2022-12-20T16:04:16;59.35;;;26.70;;
44885;SDS011;36669;51.428;21.162;2022-12-20T16:06:47;61.08;;;28.65;;
44885;SDS011;36669;51.428;21.162;2022-12-20T16:09:14;62.50;;;27.65;;
44885;SDS011;36669;51.428;21.162;2022-12-20T16:11:40;59.17;;;26.10;;
44885;SDS011;36669;51.428;21.162;2022-12-20T16:14:09;64.47;;;28.33;;
44885;SDS011;36669;51.428;21.162;2022-12-20T16:16:40;51.95;;;24.40;;
44885;SDS011;36669;51.428;21.162;2022-12-20T16:19:06;60.13;;;27.02;;
44885;SDS011;36669;51.428;21.162;2022-12-20T16:21:33;60.72;;;26.33;;
44885;SDS011;36669;51.428;21.162;2022-12-20T16:24:00;61.13;;;28.95;;
44885;SDS011;36669;51.428;21.162;2022-12-20T16:26:26;59.08;;;27.42;;
44885;SDS011;36669;51.428;21.162;2022-12-20T16:28:53;66.63;;;28.98;;
44885;SDS011;36669;51.428;21.162;2022-12-20T16:33:48;61.28;;;26.70;;
44885;SDS011;36669;51.428;21.162;2022-12-20T16:36:15;69.10;;;29.20;;
44885;SDS011;36669;51.428;21.162;2022-12-20T16:38:40;58.50;;;27.00;;
44885;SDS011;36669;51.428;21.162;2022-12-20T16:41:40;63.95;;;29.90;;
44885;SDS011;36669;51.428;21.162;2022-12-20T16:43:59;63.45;;;28.95;;
44885;SDS011;36669;51.428;21.162;2022-12-20T16:46:27;62.63;;;28.42;;
44885;SDS011;36669;51.428;21.162;2022-12-20T16:48:55;66.95;;;29.60;;
44885;SDS011;36669;51.428;21.162;2022-12-20T16:51:23;67.47;;;30.35;;
44885;SDS011;36669;51.428;21.162;2022-12-20T16:54:01;66.97;;;29.38;;
44885;SDS011;36669;51.428;21.162;2022-12-20T16:56:29;62.50;;;29.45;;
44885;SDS011;36669;51.428;21.162;2022-12-20T16:58:55;61.55;;;28.20;;
44885;SDS011;36669;51.428;21.162;2022-12-20T17:01:23;65.63;;;29.95;;
44885;SDS011;36669;51.428;21.162;2022-12-20T17:03:59;63.40;;;26.98;;